Time;durP1;ratioP1;P1;durP2;ratioP2;P2;SDS_P1;SDS_P2;PMS_P1;PMS_P2;Temp;Humidity;BMP_temperature;BMP_pressure;BME280_temperature;BME280_humidity;BME280_pressure;Samples;Min_cycle;Max_cycle;Signal;HPM_P1;HPM_P2
2022/01/17 00:00:03;;;;;;;1.10;1.10;;;;;;;6.16;72.27;101439.81;682642;28;23425;-69
2022/01/17 00:00:26;;;;;;;1.10;1.10;;;;;;;6.15;72.25;101440.81;679616;28;117419;-69
2022/01/17 00:00:48;;;;;;;0.90;0.90;;;;;;;6.12;72.20;101434.72;682913;28;21581;-69
2022/01/17 00:01:11;;;;;;;1.05;1.05;;;;;;;6.13;72.38;101439.13;682118;28;44568;-69
2022/01/17 00:01:33;;;;;;;1.30;1.30;;;;;;;6.11;72.36;101448.25;680640;28;92297;-69
2022/01/17 00:01:55;;;;;;;1.10;1.10;;;;;;;6.11;72.30;101433.03;681468;28;46324;-69
2022/01/17 00:02:17;;;;;;;1.10;1.10;;;;;;;6.11;72.71;101437.53;682874;28;44336;-69
2022/01/17 00:02:39;;;;;;;0.95;0.95;;;;;;;6.09;72.48;101437.66;682346;28;45372;-69
2022/01/17 00:03:00;;;;;;;0.75;0.75;;;;;;;6.10;72.38;101434.00;683069;28;22306;-69
2022/01/17 00:03:24;;;;;;;1.10;1.10;;;;;;;6.11;72.54;101435.72;682114;28;46340;-69
2022/01/17 00:03:46;;;;;;;1.08;1.08;;;;;;;6.12;72.39;101436.56;680445;28;93052;-69
2022/01/17 00:04:10;;;;;;;1.15;1.15;;;;;;;6.09;72.42;101432.28;682175;28;46379;-69
2022/01/17 00:04:31;;;;;;;1.02;1.02;;;;;;;6.07;72.54;101436.09;680563;28;92339;-69
2022/01/17 00:04:52;;;;;;;1.00;1.00;;;;;;;6.10;72.68;101435.84;683091;28;23724;-69
2022/01/17 00:05:15;;;;;;;0.90;0.90;;;;;;;6.08;72.46;101438.66;682914;28;22507;-69
2022/01/17 00:05:36;;;;;;;1.70;1.70;;;;;;;6.11;72.66;101443.75;682649;28;40746;-69
2022/01/17 00:05:57;;;;;;;1.92;1.92;;;;;;;6.12;72.19;101441.94;683091;28;23527;-69
2022/01/17 00:06:19;;;;;;;1.27;1.27;;;;;;;6.15;72.25;101433.63;683165;28;22476;-69
2022/01/17 00:06:41;;;;;;;2.42;2.33;;;;;;;6.14;72.24;101448.00;681525;28;45203;-69
2022/01/17 00:07:03;;;;;;;1.95;1.95;;;;;;;6.11;72.17;101441.09;681402;28;69478;-69
2022/01/17 00:07:29;;;;;;;1.92;1.92;;;;;;;6.11;72.45;101449.13;683538;28;982;-69
2022/01/17 00:07:51;;;;;;;2.67;2.58;;;;;;;6.11;72.21;101433.03;678765;28;138063;-69
2022/01/17 00:08:12;;;;;;;2.03;2.03;;;;;;;6.10;72.22;101433.16;680921;28;63407;-69
2022/01/17 00:08:33;;;;;;;1.23;1.23;;;;;;;6.10;72.61;101436.69;682452;28;46382;-69
2022/01/17 00:08:56;;;;;;;1.05;1.05;;;;;;;6.09;72.47;101439.50;684336;28;1751;-69
2022/01/17 00:09:18;;;;;;;1.70;1.70;;;;;;;6.08;72.44;101438.66;681801;28;46432;-69
2022/01/17 00:09:39;;;;;;;15.80;15.10;;;;;;;6.07;72.77;101439.63;681946;28;45332;-69
2022/01/17 00:10:01;;;;;;;13.30;12.68;;;;;;;6.06;72.38;101440.59;682783;28;22505;-69
2022/01/17 00:10:23;;;;;;;2.38;2.30;;;;;;;6.07;72.55;101434.28;683840;28;890;-69
2022/01/17 00:10:44;;;;;;;1.00;1.00;;;;;;;6.11;72.43;101450.94;682254;28;46462;-69
2022/01/17 00:11:05;;;;;;;0.90;0.90;;;;;;;6.11;72.05;101449.13;682856;28;23228;-69
2022/01/17 00:11:27;;;;;;;0.82;0.82;;;;;;;6.10;72.32;101447.41;683718;28;1643;-69
2022/01/17 00:11:50;;;;;;;1.23;1.23;;;;;;;6.11;72.48;101442.91;682396;28;23376;-69
2022/01/17 00:12:11;;;;;;;13.88;13.35;;;;;;;6.11;72.15;101442.91;681434;28;69495;-69
2022/01/17 00:12:36;;;;;;;34.95;33.38;;;;;;;6.10;72.57;101438.53;684898;28;21555;-69
2022/01/17 00:12:59;;;;;;;1.85;1.83;;;;;;;6.13;71.96;101446.31;682372;28;115904;-69
2022/01/17 00:13:25;;;;;;;0.80;0.80;;;;;;;6.15;72.10;101438.97;683776;28;69369;-69
2022/01/17 00:13:48;;;;;;;0.70;0.70;;;;;;;6.15;71.90;101446.19;681406;28;136796;-69
2022/01/17 00:14:13;;;;;;;0.80;0.80;;;;;;;6.16;71.99;101446.06;683760;28;69160;-69
2022/01/17 00:14:39;;;;;;;0.80;0.80;;;;;;;6.15;71.64;101438.16;680215;28;115162;-69
2022/01/17 00:15:00;;;;;;;0.70;0.70;;;;;;;6.11;71.82;101432.16;679495;28;136385;-69
2022/01/17 00:15:27;;;;;;;0.70;0.70;;;;;;;6.14;71.76;101437.28;683297;28;22409;-69
2022/01/17 00:15:52;;;;;;;0.65;0.65;;;;;;;6.16;72.16;101434.47;678378;28;138179;-69
2022/01/17 00:16:17;;;;;;;0.60;0.60;;;;;;;6.14;71.89;101431.91;679687;28;115170;-69
2022/01/17 00:16:44;;;;;;;0.80;0.80;;;;;;;6.12;72.17;101434.72;678108;28;138512;-69
2022/01/17 00:17:11;;;;;;;0.80;0.80;;;;;;;6.18;71.91;101437.88;679275;28;136191;-69
2022/01/17 00:17:37;;;;;;;0.70;0.70;;;;;;;6.17;72.17;101431.66;680303;28;106580;-69
2022/01/17 00:18:23;;;;;;;0.70;0.70;;;;;;;6.13;71.95;101433.75;678943;28;138229;-69
2022/01/17 00:20:09;;;;;;;0.70;0.70;;;;;;;6.12;72.03;101433.88;675053;28;137408;-69
2022/01/17 00:20:31;;;;;;;0.60;0.60;;;;;;;6.10;72.24;101430.50;679162;28;137061;-69
2022/01/17 00:20:52;;;;;;;0.63;0.63;;;;;;;6.11;72.33;101437.53;682341;28;46388;-69
2022/01/17 00:21:14;;;;;;;0.80;0.80;;;;;;;6.10;72.37;101435.84;682702;28;21311;-69
2022/01/17 00:21:41;;;;;;;0.80;0.80;;;;;;;6.09;72.63;101437.66;681106;28;67511;-69
2022/01/17 00:22:04;;;;;;;0.80;0.80;;;;;;;6.11;72.45;101450.94;679971;28;80850;-69
2022/01/17 00:22:25;;;;;;;0.70;0.70;;;;;;;6.15;72.16;101433.63;683705;28;44379;-69
2022/01/17 00:22:49;;;;;;;0.55;0.55;;;;;;;6.19;72.05;101434.19;685419;28;22535;-69
2022/01/17 00:23:11;;;;;;;0.60;0.60;;;;;;;6.18;71.73;101444.09;682742;28;92238;-69
2022/01/17 00:23:33;;;;;;;0.85;0.85;;;;;;;6.20;71.92;101446.63;684886;28;45264;-69
2022/01/17 00:23:54;;;;;;;0.82;0.82;;;;;;;6.21;71.43;101451.88;685113;28;42374;-69
2022/01/17 00:24:18;;;;;;;0.80;0.80;;;;;;;6.23;71.84;101441.84;684615;28;23495;-69
2022/01/17 00:24:40;;;;;;;0.70;0.70;;;;;;;6.22;71.79;101440.16;682876;28;92295;-69
2022/01/17 00:25:01;;;;;;;0.52;0.52;;;;;;;6.27;71.74;101447.78;684653;28;46626;-69
2022/01/17 00:25:23;;;;;;;0.52;0.52;;;;;;;6.26;71.74;101427.34;685443;28;22397;-69
2022/01/17 00:25:44;;;;;;;0.73;0.73;;;;;;;6.24;71.58;101456.13;684200;28;46467;-69
2022/01/17 00:26:06;;;;;;;0.80;0.80;;;;;;;6.28;71.80;101444.13;685701;28;21542;-69
2022/01/17 00:26:27;;;;;;;0.70;0.70;;;;;;;6.30;71.31;101445.72;685576;28;22423;-69
2022/01/17 00:26:52;;;;;;;0.70;0.70;;;;;;;6.26;71.21;101433.53;684675;28;23557;-69
2022/01/17 00:27:13;;;;;;;0.60;0.60;;;;;;;6.25;71.66;101439.03;681723;28;137857;-69
2022/01/17 00:27:35;;;;;;;0.60;0.60;;;;;;;6.22;71.65;101436.63;684348;28;46494;-69
2022/01/17 00:27:57;;;;;;;0.70;0.70;;;;;;;6.24;71.98;101448.94;685648;28;23271;-69
2022/01/17 00:28:18;;;;;;;0.70;0.70;;;;;;;6.24;71.74;101434.69;684494;28;46284;-69
2022/01/17 00:28:39;;;;;;;0.80;0.80;;;;;;;6.23;72.10;101443.69;685878;28;23489;-69
2022/01/17 00:29:00;;;;;;;0.70;0.70;;;;;;;6.22;72.11;101431.25;685241;28;23538;-69
2022/01/17 00:29:23;;;;;;;0.60;0.60;;;;;;;6.22;72.14;101428.56;685064;28;11700;-69
2022/01/17 00:29:44;;;;;;;0.60;0.60;;;;;;;6.23;71.79;101432.97;684240;28;45280;-69
2022/01/17 00:30:09;;;;;;;0.70;0.70;;;;;;;6.22;71.98;101437.50;685794;28;21557;-69
2022/01/17 00:30:31;;;;;;;0.70;0.70;;;;;;;6.25;71.85;101425.63;684584;28;56642;-69
2022/01/17 00:30:52;;;;;;;0.70;0.70;;;;;;;6.23;72.02;101428.44;684862;28;46345;-69
2022/01/17 00:31:13;;;;;;;0.60;0.60;;;;;;;6.25;71.70;101429.19;684555;28;46348;-69
2022/01/17 00:31:34;;;;;;;0.60;0.60;;;;;;;6.26;71.71;101435.38;685876;28;22425;-69
2022/01/17 00:31:56;;;;;;;0.60;0.60;;;;;;;6.25;71.48;101420.25;685144;28;22424;-69
2022/01/17 00:32:18;;;;;;;0.70;0.70;;;;;;;6.26;71.70;101419.28;685008;28;46427;-69
2022/01/17 00:32:39;;;;;;;0.70;0.70;;;;;;;6.25;71.70;101420.25;684969;28;45201;-69
2022/01/17 00:33:01;;;;;;;0.70;0.70;;;;;;;6.25;71.56;101412.22;685535;28;21570;-69
2022/01/17 00:33:23;;;;;;;0.60;0.60;;;;;;;6.26;71.88;101430.03;685378;28;22414;-69
2022/01/17 00:33:44;;;;;;;0.60;0.60;;;;;;;6.27;71.76;101413.78;685005;28;46140;-69
2022/01/17 00:34:05;;;;;;;0.60;0.60;;;;;;;6.26;71.47;101419.28;685905;28;22409;-69
2022/01/17 00:34:26;;;;;;;0.60;0.60;;;;;;;6.24;71.48;101427.47;685687;28;22424;-69
2022/01/17 00:34:48;;;;;;;0.75;0.75;;;;;;;6.27;71.45;101427.22;685082;28;21546;-69
2022/01/17 00:35:09;;;;;;;0.70;0.70;;;;;;;6.28;71.58;101423.50;681736;28;45274;-69
2022/01/17 00:35:30;;;;;;;0.68;0.68;;;;;;;6.31;71.26;101414.38;682084;28;46329;-69
2022/01/17 00:35:51;;;;;;;0.60;0.60;;;;;;;6.30;71.20;101407.28;682725;28;22402;-69
2022/01/17 00:36:13;;;;;;;0.50;0.50;;;;;;;6.30;71.19;101412.66;682734;28;23501;-69
2022/01/17 00:36:34;;;;;;;0.50;0.50;;;;;;;6.28;71.63;101420.00;682230;28;44400;-69
2022/01/17 00:36:56;;;;;;;0.63;0.63;;;;;;;6.27;71.62;101421.84;682589;28;22378;-69
2022/01/17 00:37:17;;;;;;;0.80;0.80;;;;;;;6.24;71.80;101411.38;685356;28;23461;-69
2022/01/17 00:37:39;;;;;;;0.75;0.75;;;;;;;6.27;71.65;101421.84;685541;28;22217;-69
2022/01/17 00:38:00;;;;;;;0.60;0.60;;;;;;;6.28;71.67;101418.16;684962;28;44463;-69
2022/01/17 00:38:23;;;;;;;0.60;0.60;;;;;;;6.29;71.64;101409.13;684306;28;44388;-69
2022/01/17 00:38:44;;;;;;;0.50;0.50;;;;;;;6.36;71.01;101412.13;684890;28;46370;-69
2022/01/17 00:39:06;;;;;;;0.60;0.60;;;;;;;6.39;70.66;101424.44;686217;28;1492;-69
2022/01/17 00:39:27;;;;;;;0.70;0.70;;;;;;;6.39;70.83;101425.28;685017;28;45267;-69
2022/01/17 00:39:48;;;;;;;0.60;0.60;;;;;;;6.38;71.03;101417.34;685472;28;23494;-69
2022/01/17 00:40:12;;;;;;;0.60;0.60;;;;;;;6.35;71.30;101431.03;685837;28;21530;-69
2022/01/17 00:40:33;;;;;;;0.60;0.60;;;;;;;6.34;71.43;101422.16;683217;28;92313;-69
2022/01/17 00:40:54;;;;;;;0.50;0.50;;;;;;;6.26;71.55;101412.06;685751;28;23520;-69
2022/01/17 00:41:16;;;;;;;0.52;0.52;;;;;;;6.30;71.37;101423.38;685931;28;1355;-69
2022/01/17 00:41:37;;;;;;;0.77;0.77;;;;;;;6.31;71.22;101409.84;683239;28;44482;-69
2022/01/17 00:41:58;;;;;;;0.70;0.70;;;;;;;6.30;71.69;101424.25;685635;28;24185;-69
2022/01/17 00:42:19;;;;;;;0.70;0.70;;;;;;;6.31;71.56;101412.53;685787;28;22448;-69
2022/01/17 00:42:42;;;;;;;0.60;0.60;;;;;;;6.34;71.29;101414.09;685558;28;22572;-69
2022/01/17 00:43:03;;;;;;;0.50;0.50;;;;;;;6.32;71.30;101414.22;683956;28;69435;-69
2022/01/17 00:43:25;;;;;;;0.60;0.60;;;;;;;6.34;71.26;101405.22;682967;28;22149;-69
2022/01/17 00:43:46;;;;;;;0.70;0.70;;;;;;;6.32;71.42;101416.91;682265;28;44052;-69
2022/01/17 00:44:08;;;;;;;0.70;0.70;;;;;;;6.36;71.16;101413.97;683136;28;22405;-69
2022/01/17 00:44:29;;;;;;;0.70;0.70;;;;;;;6.36;71.13;101408.59;682187;28;44402;-69
2022/01/17 00:44:50;;;;;;;0.63;0.63;;;;;;;6.37;71.22;101418.38;682640;28;22218;-69
2022/01/17 00:45:13;;;;;;;0.60;0.60;;;;;;;6.34;71.54;101418.63;682530;28;45324;-69
2022/01/17 00:45:38;;;;;;;0.60;0.60;;;;;;;6.31;71.82;101430.47;684768;28;47328;-69
2022/01/17 00:45:59;;;;;;;0.73;0.73;;;;;;;6.28;71.73;101431.56;682613;28;113390;-69
2022/01/17 00:46:20;;;;;;;0.70;0.70;;;;;;;6.28;71.75;101423.50;685892;28;22415;-69
2022/01/17 00:46:42;;;;;;;0.70;0.70;;;;;;;6.28;71.91;101428.03;684200;28;22159;-69
2022/01/17 00:47:03;;;;;;;0.70;0.70;;;;;;;6.29;71.75;101425.22;684529;28;44408;-69
2022/01/17 00:47:24;;;;;;;0.60;0.60;;;;;;;6.32;71.46;101435.69;686262;28;6714;-69
2022/01/17 00:47:50;;;;;;;0.57;0.57;;;;;;;6.39;71.20;101421.75;685591;28;22372;-69
2022/01/17 00:48:11;;;;;;;0.77;0.77;;;;;;;6.37;71.14;101429.94;681633;28;137822;-69
2022/01/17 00:48:32;;;;;;;0.70;0.70;;;;;;;6.36;71.42;101432.75;685829;28;22480;-69
2022/01/17 00:48:53;;;;;;;0.70;0.70;;;;;;;6.37;71.15;101429.09;685512;28;22203;-69
2022/01/17 00:49:15;;;;;;;0.50;0.50;;;;;;;6.37;71.12;101429.94;682577;28;19814;-69
2022/01/17 00:49:36;;;;;;;0.50;0.50;;;;;;;6.35;71.27;101417.63;682424;28;46231;-69
2022/01/17 00:49:57;;;;;;;0.60;0.60;;;;;;;6.37;71.03;101427.25;682951;28;21548;-69
2022/01/17 00:50:18;;;;;;;0.70;0.70;;;;;;;6.36;71.17;101424.69;682639;28;23473;-69
2022/01/17 00:50:40;;;;;;;0.70;0.70;;;;;;;6.36;71.40;101425.53;682737;28;23721;-69
2022/01/17 00:51:02;;;;;;;0.70;0.70;;;;;;;6.37;71.11;101415.69;682624;28;45950;-69
2022/01/17 00:51:23;;;;;;;0.60;0.60;;;;;;;6.37;70.84;101421.88;684503;28;46415;-69
2022/01/17 00:51:44;;;;;;;0.60;0.60;;;;;;;6.37;70.95;101423.72;684552;28;23545;-69
2022/01/17 00:52:06;;;;;;;0.60;0.60;;;;;;;6.37;71.23;101418.38;685782;28;22401;-69
2022/01/17 00:52:27;;;;;;;0.80;0.80;;;;;;;6.37;71.32;101426.41;684208;28;46669;-69
2022/01/17 00:52:49;;;;;;;0.80;0.80;;;;;;;6.37;71.19;101429.94;684682;28;45316;-69
2022/01/17 00:53:10;;;;;;;0.80;0.80;;;;;;;6.38;71.00;101418.22;684293;28;46362;-69
2022/01/17 00:53:36;;;;;;;0.90;0.90;;;;;;;6.39;71.17;101419.06;685751;28;22402;-69
2022/01/17 00:53:57;;;;;;;0.80;0.80;;;;;;;6.41;70.84;101409.03;680948;28;137965;-69
2022/01/17 00:54:18;;;;;;;0.75;0.75;;;;;;;6.43;70.60;101421.34;685748;28;22030;-69
2022/01/17 00:54:40;;;;;;;0.70;0.70;;;;;;;6.45;70.73;101411.31;685896;28;23509;-69
2022/01/17 00:55:02;;;;;;;0.80;0.80;;;;;;;6.43;70.94;101413.31;685284;28;45271;-69
2022/01/17 00:55:23;;;;;;;0.80;0.80;;;;;;;6.40;70.96;101408.19;684444;28;42724;-69
2022/01/17 00:55:45;;;;;;;0.80;0.80;;;;;;;6.39;70.95;101425.28;684975;28;21531;-69
2022/01/17 00:56:06;;;;;;;0.80;0.80;;;;;;;6.40;70.93;101423.47;684712;28;45941;-69
2022/01/17 00:56:27;;;;;;;0.70;0.70;;;;;;;6.44;70.63;101409.66;685472;28;23447;-69
2022/01/17 00:56:48;;;;;;;0.80;0.80;;;;;;;6.44;70.70;101409.66;684355;28;22405;-69
2022/01/17 00:57:11;;;;;;;0.90;0.90;;;;;;;6.48;70.73;101405.69;684973;28;22394;-69
2022/01/17 00:57:32;;;;;;;0.80;0.80;;;;;;;6.49;70.29;101404.72;685382;28;46618;-69
2022/01/17 00:57:53;;;;;;;0.80;0.80;;;;;;;6.45;70.72;101403.28;684675;28;44376;-69
2022/01/17 00:58:14;;;;;;;0.83;0.83;;;;;;;6.43;70.74;101401.72;685701;28;21248;-69
2022/01/17 00:58:36;;;;;;;0.70;0.70;;;;;;;6.42;70.89;101405.38;685314;28;45284;-69
2022/01/17 00:58:57;;;;;;;0.60;0.60;;;;;;;6.39;70.81;101395.75;684536;28;45264;-69
2022/01/17 00:59:18;;;;;;;0.80;0.80;;;;;;;6.40;70.92;101407.38;685243;28;22369;-69
2022/01/17 00:59:40;;;;;;;0.80;0.80;;;;;;;6.42;70.91;101395.50;685115;28;22296;-69
2022/01/17 01:00:02;;;;;;;0.70;0.70;;;;;;;6.39;70.70;101392.25;684913;28;44403;-69
2022/01/17 01:00:23;;;;;;;0.70;0.70;;;;;;;6.39;70.69;101403.81;685208;28;38417;-69
2022/01/17 01:00:45;;;;;;;0.60;0.60;;;;;;;6.42;70.61;101392.81;684898;28;22417;-69
2022/01/17 01:01:06;;;;;;;0.60;0.60;;;;;;;6.40;70.80;101389.41;685027;28;46328;-69
2022/01/17 01:01:27;;;;;;;0.70;0.70;;;;;;;6.42;70.74;101392.81;685962;28;22409;-69
2022/01/17 01:01:49;;;;;;;0.80;0.80;;;;;;;6.42;70.55;101389.28;684767;28;23458;-69
2022/01/17 01:02:11;;;;;;;0.80;0.80;;;;;;;6.44;70.73;101398.91;682229;28;23454;-69
2022/01/17 01:02:32;;;;;;;0.70;0.70;;;;;;;6.44;70.61;101398.03;681802;28;44483;-69
2022/01/17 01:02:53;;;;;;;0.60;0.60;;;;;;;6.47;70.82;101387.91;683212;28;22349;-69
2022/01/17 01:03:14;;;;;;;0.60;0.60;;;;;;;6.50;70.63;101389.47;682068;28;45045;-69
2022/01/17 01:03:36;;;;;;;0.70;0.70;;;;;;;6.49;70.49;101395.84;682928;28;22394;-69
2022/01/17 01:03:57;;;;;;;0.80;0.80;;;;;;;6.46;70.59;101388.88;682307;28;44581;-69
2022/01/17 01:04:18;;;;;;;0.80;0.80;;;;;;;6.46;70.79;101393.41;685610;28;22410;-69
2022/01/17 01:04:40;;;;;;;0.70;0.70;;;;;;;6.43;70.53;101391.84;685743;28;23403;-69
2022/01/17 01:05:02;;;;;;;0.60;0.60;;;;;;;6.39;70.98;101387.72;685065;28;45276;-69
2022/01/17 01:05:23;;;;;;;0.60;0.60;;;;;;;6.42;70.66;101387.44;684650;28;45251;-69
2022/01/17 01:05:45;;;;;;;0.52;0.52;;;;;;;6.44;70.90;101396.22;684883;28;21474;-69
2022/01/17 01:06:07;;;;;;;0.60;0.60;;;;;;;6.45;70.67;101394.38;685186;28;46216;-69
2022/01/17 01:06:30;;;;;;;0.70;0.70;;;;;;;6.42;70.93;101395.50;684812;28;44408;-69
2022/01/17 01:06:51;;;;;;;0.70;0.70;;;;;;;6.42;70.98;101391.97;683022;28;67285;-69
2022/01/17 01:07:13;;;;;;;0.68;0.68;;;;;;;6.42;70.98;101397.34;685097;28;22471;-69
2022/01/17 01:07:34;;;;;;;0.60;0.60;;;;;;;6.46;70.91;101375.47;684939;28;45248;-69
2022/01/17 01:07:55;;;;;;;0.60;0.60;;;;;;;6.51;70.34;101387.66;685411;28;22203;-69
2022/01/17 01:08:16;;;;;;;0.60;0.60;;;;;;;6.49;70.40;101388.63;685283;28;21522;-69
2022/01/17 01:08:40;;;;;;;0.73;0.73;;;;;;;6.52;70.53;101387.50;685468;28;22301;-69
2022/01/17 01:09:01;;;;;;;0.73;0.73;;;;;;;6.49;70.26;101379.72;683664;28;69238;-69
2022/01/17 01:09:23;;;;;;;0.70;0.70;;;;;;;6.49;70.36;101377.88;684718;28;23368;-69
2022/01/17 01:09:53;;;;;;;0.60;0.60;;;;;;;6.48;70.55;101384.22;683895;28;69473;-69
2022/01/17 01:10:16;;;;;;;0.60;0.60;;;;;;;6.46;70.45;101385.38;681166;28;137541;-69
2022/01/17 01:10:37;;;;;;;0.70;0.70;;;;;;;6.46;70.55;101378.16;683809;28;45088;-69
2022/01/17 01:10:58;;;;;;;0.80;0.80;;;;;;;6.42;70.83;101382.06;685299;28;23474;-69
2022/01/17 01:11:19;;;;;;;0.80;0.80;;;;;;;6.51;70.60;101380.44;684219;28;45259;-69
2022/01/17 01:11:41;;;;;;;0.75;0.75;;;;;;;6.51;70.28;101380.44;684702;28;22414;-69
2022/01/17 01:12:03;;;;;;;0.70;0.70;;;;;;;6.48;70.72;101386.06;685078;28;44341;-69
2022/01/17 01:12:24;;;;;;;0.60;0.60;;;;;;;6.47;70.79;101373.63;683399;28;46838;-69
2022/01/17 01:12:47;;;;;;;0.60;0.60;;;;;;;6.46;70.93;101374.63;685393;28;21509;-69
2022/01/17 01:13:10;;;;;;;0.80;0.80;;;;;;;6.44;71.02;101372.09;682256;28;46436;-69
2022/01/17 01:13:31;;;;;;;0.70;0.70;;;;;;;6.43;70.63;101366.84;681769;28;69491;-69
2022/01/17 01:13:52;;;;;;;0.60;0.60;;;;;;;6.46;70.82;101367.41;683702;28;1760;-69
2022/01/17 01:14:14;;;;;;;0.60;0.60;;;;;;;6.46;70.57;101364.75;683576;28;2055;-69
2022/01/17 01:14:35;;;;;;;0.60;0.60;;;;;;;6.47;70.62;101370.94;682834;28;46343;-69
2022/01/17 01:14:56;;;;;;;0.50;0.50;;;;;;;6.48;70.38;101362.75;683734;28;21577;-69
2022/01/17 01:15:21;;;;;;;0.75;0.75;;;;;;;6.49;70.84;101377.06;685483;28;23504;-69
2022/01/17 01:15:58;;;;;;;0.80;0.80;;;;;;;6.54;70.66;101366.75;682505;28;92347;-69
2022/01/17 01:16:30;;;;;;;0.60;0.60;;;;;;;6.50;70.75;101368.00;681708;28;137547;-69
2022/01/17 01:16:53;;;;;;;0.60;0.60;;;;;;;6.49;70.58;101377.06;680499;28;137784;-69
2022/01/17 01:17:30;;;;;;;0.60;0.60;;;;;;;6.48;70.48;101378.84;683624;28;67127;-69
2022/01/17 01:17:54;;;;;;;0.80;0.80;;;;;;;6.47;70.64;101376.31;681130;28;136017;-69
2022/01/17 01:18:16;;;;;;;0.70;0.70;;;;;;;6.49;70.79;101374.38;683587;28;69514;-69
2022/01/17 01:18:49;;;;;;;0.68;0.68;;;;;;;6.53;70.42;101367.72;684361;28;46341;-69
2022/01/17 01:19:59;;;;;;;0.85;0.85;;;;;;;6.46;70.72;101371.94;681818;28;137662;-69
2022/01/17 01:20:47;;;;;;;0.80;0.80;;;;;;;6.43;71.06;101366.84;681372;28;138074;-69
2022/01/17 01:21:42;;;;;;;0.63;0.63;;;;;;;6.46;70.70;101372.78;681581;28;137415;-69
2022/01/17 01:27:39;;;;;;;0.70;0.70;;;;;;;6.46;70.67;101375.47;680247;28;158373;-69
2022/01/17 01:28:11;;;;;;;11.57;11.15;;;;;;;6.54;70.56;101382.00;678186;28;160464;-69
2022/01/17 01:28:32;;;;;;;8.70;8.35;;;;;;;6.56;70.48;101393.44;682205;28;45390;-69
2022/01/17 01:28:53;;;;;;;0.82;0.82;;;;;;;6.65;70.27;101380.06;682285;28;43752;-69
2022/01/17 01:29:14;;;;;;;0.77;0.77;;;;;;;6.65;69.76;101379.22;681948;28;22480;-69
2022/01/17 01:29:44;;;;;;;0.60;0.60;;;;;;;6.57;70.21;101371.84;682995;28;21530;-69
2022/01/17 01:30:10;;;;;;;0.80;0.80;;;;;;;6.55;70.39;101376.50;678298;28;159553;-69
2022/01/17 01:30:34;;;;;;;0.80;0.80;;;;;;;6.55;70.54;101381.88;678772;28;138053;-69
2022/01/17 01:30:56;;;;;;;0.75;0.75;;;;;;;6.53;70.27;101383.81;680249;28;92048;-69
2022/01/17 01:31:27;;;;;;;11.10;10.65;;;;;;;6.55;70.37;101384.56;681973;28;46462;-69
2022/01/17 01:31:52;;;;;;;69.85;66.50;;;;;;;6.51;70.43;101379.59;678278;28;137753;-69
2022/01/17 01:32:19;;;;;;;1.38;1.38;;;;;;;6.51;70.78;101377.75;678841;28;138820;-69
2022/01/17 01:32:45;;;;;;;0.90;0.90;;;;;;;6.49;70.29;101388.63;675713;29;137883;-69
2022/01/17 01:33:07;;;;;;;2.70;2.70;;;;;;;6.51;70.49;101380.44;676390;28;136458;-69
2022/01/17 01:33:32;;;;;;;2.38;2.35;;;;;;;6.53;70.47;101380.31;678686;29;67507;-69
2022/01/17 01:33:55;;;;;;;1.00;1.00;;;;;;;6.52;70.64;101386.66;677278;29;114433;-69
2022/01/17 01:34:18;;;;;;;1.10;1.10;;;;;;;6.54;70.56;101382.00;674403;29;92404;-69
2022/01/17 01:34:43;;;;;;;1.00;1.00;;;;;;;6.52;70.32;101387.50;677366;29;92347;-69
2022/01/17 01:35:09;;;;;;;0.80;0.80;;;;;;;6.52;70.22;101389.31;676728;29;137902;-69
2022/01/17 01:35:32;;;;;;;0.98;0.98;;;;;;;6.49;70.48;101391.31;674279;29;135002;-69
2022/01/17 01:36:00;;;;;;;1.00;1.00;;;;;;;6.45;70.47;101386.34;676953;29;70166;-69
2022/01/17 01:36:26;;;;;;;0.90;0.90;;;;;;;6.46;70.54;101386.22;675687;29;159713;-69
2022/01/17 01:36:48;;;;;;;1.42;1.42;;;;;;;6.51;70.31;101390.34;675325;29;138208;-69
2022/01/17 01:37:10;;;;;;;1.10;1.10;;;;;;;6.51;70.61;101393.00;678352;29;69357;-69
2022/01/17 01:37:32;;;;;;;1.10;1.10;;;;;;;6.48;70.35;101389.59;682058;28;1836;-69
2022/01/17 01:37:53;;;;;;;1.63;1.63;;;;;;;6.49;70.46;101385.09;681739;28;45246;-69
2022/01/17 01:38:14;;;;;;;1.20;1.20;;;;;;;6.49;70.26;101391.31;682650;28;22528;-69
2022/01/17 01:38:39;;;;;;;1.10;1.10;;;;;;;6.48;70.50;101392.28;682879;28;22401;-69
2022/01/17 01:39:01;;;;;;;0.93;0.93;;;;;;;6.49;70.40;101387.78;679000;28;115100;-69
2022/01/17 01:39:24;;;;;;;1.00;1.00;;;;;;;6.51;70.25;101393.00;681698;28;44387;-69
2022/01/17 01:39:51;;;;;;;0.90;0.90;;;;;;;6.52;70.47;101379.47;677896;29;68492;-69
2022/01/17 01:40:14;;;;;;;1.80;1.70;;;;;;;6.53;69.94;101377.63;675883;29;139887;-69
2022/01/17 01:40:36;;;;;;;1.10;1.10;;;;;;;6.53;70.15;101375.78;677997;29;93046;-69
2022/01/17 01:40:58;;;;;;;1.23;1.23;;;;;;;6.53;70.20;101374.94;680196;29;22408;-69
2022/01/17 01:41:20;;;;;;;0.90;0.90;;;;;;;6.52;70.19;101381.28;679362;29;46417;-69
2022/01/17 01:41:43;;;;;;;0.80;0.80;;;;;;;6.52;70.27;101374.09;680852;28;23702;-69
2022/01/17 01:42:05;;;;;;;0.80;0.80;;;;;;;6.53;69.97;101374.94;681038;28;69432;-69
2022/01/17 01:42:29;;;;;;;0.90;0.90;;;;;;;6.55;69.94;101376.50;681831;28;46380;-69
2022/01/17 01:42:53;;;;;;;0.80;0.80;;;;;;;6.54;70.00;101369.44;680522;28;90327;-69
2022/01/17 01:43:14;;;;;;;0.80;0.80;;;;;;;6.54;70.12;101374.81;680665;28;92429;-69
2022/01/17 01:43:35;;;;;;;0.70;0.70;;;;;;;6.57;70.11;101368.31;682997;28;22434;-69
2022/01/17 01:43:56;;;;;;;0.70;0.70;;;;;;;6.58;70.25;101372.69;682941;28;22495;-69
2022/01/17 01:44:21;;;;;;;0.60;0.60;;;;;;;6.60;70.12;101371.56;683019;28;22414;-69
2022/01/17 01:44:42;;;;;;;0.85;0.85;;;;;;;6.57;70.09;101361.13;679575;28;115343;-69
2022/01/17 01:45:07;;;;;;;0.90;0.90;;;;;;;6.56;70.24;101355.88;683341;28;21510;-69
2022/01/17 01:45:29;;;;;;;0.80;0.80;;;;;;;6.57;70.22;101365.63;679872;28;115502;-69
2022/01/17 01:45:57;;;;;;;0.70;0.70;;;;;;;6.57;69.83;101358.44;681445;28;46489;-69
2022/01/17 01:46:19;;;;;;;0.60;0.60;;;;;;;6.55;70.09;101363.09;678094;28;159169;-69
2022/01/17 01:46:41;;;;;;;0.65;0.65;;;;;;;6.55;69.94;101360.41;680489;28;69246;-69
2022/01/17 01:47:04;;;;;;;0.90;0.90;;;;;;;6.50;70.22;101341.16;678840;29;44055;-69
2022/01/17 01:47:26;;;;;;;0.90;0.90;;;;;;;6.54;70.16;101358.69;678712;29;69562;-69
2022/01/17 01:47:48;;;;;;;0.80;0.80;;;;;;;6.55;70.18;101367.59;679085;29;47160;-69
2022/01/17 01:48:12;;;;;;;0.80;0.80;;;;;;;6.57;69.92;101365.63;679760;29;30151;-69
2022/01/17 01:48:35;;;;;;;0.70;0.70;;;;;;;6.57;70.27;101373.69;678859;29;67493;-69
2022/01/17 01:48:56;;;;;;;0.70;0.70;;;;;;;6.57;69.85;101357.59;679659;28;90378;-69
2022/01/17 01:49:17;;;;;;;0.90;0.90;;;;;;;6.60;69.72;101358.16;682413;28;22283;-69
2022/01/17 01:49:39;;;;;;;0.80;0.80;;;;;;;6.60;69.76;101368.91;683447;28;22412;-69
2022/01/17 01:50:01;;;;;;;0.77;0.77;;;;;;;6.55;69.81;101348.81;683258;28;22414;-69
2022/01/17 01:50:22;;;;;;;0.60;0.60;;;;;;;6.58;69.80;101354.78;682450;28;45378;-69
2022/01/17 01:50:44;;;;;;;0.60;0.60;;;;;;;6.59;70.03;101361.81;682658;28;45284;-69
2022/01/17 01:51:07;;;;;;;0.80;0.80;;;;;;;6.60;70.05;101362.66;682589;28;46372;-69
2022/01/17 01:51:28;;;;;;;1.08;1.08;;;;;;;6.61;69.69;101361.69;681845;28;69451;-69
2022/01/17 01:51:49;;;;;;;1.00;1.00;;;;;;;6.59;69.87;101358.28;682455;28;21355;-69
2022/01/17 01:52:10;;;;;;;1.00;1.00;;;;;;;6.59;69.79;101363.66;683337;28;23486;-69
2022/01/17 01:52:32;;;;;;;0.90;0.90;;;;;;;6.56;69.90;101359.41;682919;28;23495;-69
2022/01/17 01:52:53;;;;;;;0.95;0.95;;;;;;;6.58;69.88;101357.44;682481;28;45283;-69
2022/01/17 01:53:14;;;;;;;1.00;1.00;;;;;;;6.56;69.89;101361.25;683243;28;21545;-69
2022/01/17 01:53:36;;;;;;;1.20;1.20;;;;;;;6.56;69.89;101361.25;683335;28;23410;-69
2022/01/17 01:53:57;;;;;;;1.08;1.08;;;;;;;6.57;69.87;101363.78;682708;28;46661;-69
2022/01/17 01:54:19;;;;;;;1.00;1.00;;;;;;;6.54;69.94;101365.91;682612;28;21449;-69
2022/01/17 01:54:41;;;;;;;1.08;1.08;;;;;;;6.55;69.91;101371.16;682682;28;45267;-69
2022/01/17 01:55:04;;;;;;;0.90;0.90;;;;;;;6.53;70.21;101370.41;682410;28;46331;-69
2022/01/17 01:55:26;;;;;;;1.02;1.02;;;;;;;6.53;69.88;101372.25;681444;28;69442;-69
2022/01/17 01:55:47;;;;;;;1.17;1.17;;;;;;;6.53;69.98;101374.94;682374;28;47445;-69
2022/01/17 01:56:08;;;;;;;1.38;1.38;;;;;;;6.53;70.27;101378.47;682656;28;21308;-69